Flight Track Log - Related Links

Times and Time Zones

All times are in EDT time to prevent confusion due to time zone crossing. See the CTL15 flight status page for this flight to view local times or setup timezone preferences in your user account.

Time Position Orientation Groundspeed Altitude Reporting Facility
EDT Latitude Longitude Course Direction KTS MPH feet Rate Location/Type
Mon 07:42:41 PM 39.5922 -84.1683 47° Northeast 156 180 2,800  Level Indianapolis Center
Mon 07:44:09 PM 39.6331 -84.1114 47° Northeast 156 180 4,100 863 Climbing Indianapolis Center
Mon 07:45:07 PM 39.6628 -84.0692 48° Northeast 153 176 4,900 732 Climbing Indianapolis Center
Mon 07:46:12 PM 39.6922 -84.0292 46° Northeast 155 178 5,600 716 Climbing Indianapolis Center
Mon 07:46:56 PM 39.7167 -83.9975 45° Northeast 155 178 6,200 590 Climbing Indianapolis Center
Mon 07:47:13 PM 39.7231 -83.9903 41° Northeast 154 177 6,200 689 Level Indianapolis Center
Mon 07:47:57 PM 39.7489 -83.9583 44° Northeast 156 180 6,900 677 Climbing Indianapolis Center
Mon 07:48:15 PM 39.7550 -83.9497 47° Northeast 156 180 6,900 179 Level Indianapolis Center
Mon 07:49:04 PM 39.7861 -83.9117 43° Northeast 176 203 7,100 109 Climbing Indianapolis Center
Mon 07:50:05 PM 39.8253 -83.8650 42° Northeast 195 224 7,100 -50 Level Indianapolis Center
Mon 07:51:05 PM 39.8664 -83.8186 41° Northeast 198 228 7,000 -80 Descending Indianapolis Center
Mon 07:51:20 PM 39.8708 -83.8106 54° Northeast 194 223 7,000  Level Indianapolis Center
Mon 07:52:12 PM 39.9125 -83.7619 42° Northeast 198 228 7,000  Level Indianapolis Center
Mon 07:53:01 PM 39.9425 -83.7247 44° Northeast 197 227 7,000  Level Indianapolis Center
Mon 07:53:23 PM 39.9594 -83.7039 43° Northeast 197 227 7,000 98 Level Indianapolis Center
Mon 07:54:02 PM 39.9844 -83.6703 46° Northeast 199 229 7,100  Climbing Indianapolis Center
Mon 07:54:25 PM 39.9986 -83.6519 45° Northeast 197 227 7,000 -100 Descending Indianapolis Center
Mon 07:55:02 PM 40.0217 -83.6203 46° Northeast 195 224 7,000 98 Level Indianapolis Center
Mon 07:55:26 PM 40.0375 -83.6003 44° Northeast 197 227 7,100  Climbing Indianapolis Center
Mon 07:55:57 PM 40.0544 -83.5700 54° Northeast 197 227 7,000 -97 Descending Indianapolis Center
Mon 07:56:28 PM 40.0733 -83.5444 46° Northeast 197 227 7,000  Level Indianapolis Center
Mon 07:57:30 PM 40.1156 -83.4983 40° Northeast 196 226 7,000  Level Indianapolis Center
Mon 07:58:31 PM 40.1572 -83.4500 42° Northeast 197 227 7,000  Level Indianapolis Center
Mon 07:59:17 PM 40.1897 -83.4092 44° Northeast 198 228 7,000 97 Level Indianapolis Center
Mon 07:59:33 PM 40.1978 -83.4006 39° Northeast 198 228 7,100 109 Climbing Indianapolis Center
Mon 08:00:12 PM 40.2264 -83.3672 42° Northeast 194 223 7,100 -98 Level Indianapolis Center
Mon 08:00:34 PM 40.2389 -83.3528 41° Northeast 197 227 7,000 -71 Descending Indianapolis Center
Mon 08:01:36 PM 40.2808 -83.3036 42° Northeast 199 229 7,000  Level Indianapolis Center
Mon 08:02:38 PM 40.3203 -83.2517 45° Northeast 199 229 7,000  Level Indianapolis Center
Mon 08:03:39 PM 40.3611 -83.2017 43° Northeast 199 229 7,000 49 Level Indianapolis Center
Mon 08:04:41 PM 40.4011 -83.1531 43° Northeast 196 226 7,100 48 Climbing Indianapolis Center
Mon 08:05:43 PM 40.4417 -83.1047 42° Northeast 195 224 7,100  Level Indianapolis Center
Mon 08:06:44 PM 40.4889 -83.0467 43° Northeast 197 227 7,100  Level Indianapolis Center
Mon 08:07:46 PM 40.5258 -83.0036 42° Northeast 197 227 7,100 -48 Level Indianapolis Center
Mon 08:08:48 PM 40.5658 -82.9533 44° Northeast 198 228 7,000 -49 Descending Indianapolis Center
Mon 08:09:49 PM 40.6131 -82.8950 43° Northeast 198 228 7,000  Level Indianapolis Center
Mon 08:10:51 PM 40.6536 -82.8456 43° Northeast 197 227 7,000  Level Indianapolis Center
Mon 08:11:53 PM 40.6964 -82.7986 40° Northeast 198 228 7,000 -195 Level Indianapolis Center
Mon 08:12:54 PM 40.7381 -82.7472 43° Northeast 203 234 6,600 -537 Descending Indianapolis Center
Mon 08:13:56 PM 40.7847 -82.6939 41° Northeast 216 249 5,900 -677 Descending Indianapolis Center
Mon 08:14:58 PM 40.8319 -82.6422 40° Northeast 218 251 5,200 -677 Descending Indianapolis Center

Login

Don't have an account? Register now (free) for customized features, flight alerts, and more!